createdAt,value
2023-05-19T00:02:28.164Z,12.00
2023-05-19T00:05:45.608Z,12.08
2023-05-19T00:09:16.080Z,12.38
2023-05-19T00:12:28.737Z,12.27
2023-05-19T00:15:41.501Z,12.42
2023-05-19T00:18:54.450Z,12.23
2023-05-19T00:22:06.884Z,12.31
2023-05-19T00:25:19.628Z,12.39
2023-05-19T00:28:31.999Z,12.33
2023-05-19T00:31:45.000Z,12.37
2023-05-19T00:34:57.413Z,12.37
2023-05-19T00:38:10.110Z,12.35
2023-05-19T00:41:22.849Z,12.26
2023-05-19T00:44:37.999Z,12.19
2023-05-19T00:47:50.444Z,12.21
2023-05-19T00:51:04.700Z,12.42
2023-05-19T00:54:17.394Z,12.49
2023-05-19T00:57:30.139Z,12.26
2023-05-19T01:00:43.427Z,12.28
2023-05-19T01:03:59.189Z,12.10
2023-05-19T01:07:12.599Z,12.09
2023-05-19T01:10:25.455Z,11.96
2023-05-19T01:13:40.347Z,11.94
2023-05-19T01:17:08.195Z,12.01
2023-05-19T01:20:27.311Z,12.01
2023-05-19T01:24:09.203Z,11.88
2023-05-19T01:27:38.921Z,11.81
2023-05-19T01:30:55.663Z,11.74
2023-05-19T01:34:08.147Z,11.95
2023-05-19T01:37:20.786Z,11.85
2023-05-19T01:40:33.494Z,11.82
2023-05-19T01:43:46.590Z,11.86
2023-05-19T01:46:59.132Z,11.83
2023-05-19T01:50:11.861Z,11.89
2023-05-19T01:53:24.619Z,11.85
2023-05-19T01:57:04.377Z,11.97
2023-05-19T02:01:01.479Z,11.88
2023-05-19T02:04:39.910Z,11.71
2023-05-19T02:08:06.560Z,11.90
2023-05-19T02:11:46.260Z,11.92
2023-05-19T02:15:15.941Z,11.76
2023-05-19T02:18:29.998Z,11.77
2023-05-19T02:21:42.715Z,11.68
2023-05-19T02:24:56.568Z,11.75
2023-05-19T02:28:09.862Z,11.80
2023-05-19T02:31:22.298Z,11.86
2023-05-19T02:34:34.986Z,12.14
2023-05-19T02:37:49.982Z,11.93
2023-05-19T02:41:02.765Z,11.99
2023-05-19T02:44:15.380Z,11.85
2023-05-19T02:47:28.120Z,11.62
2023-05-19T02:50:40.618Z,11.62
2023-05-19T02:53:53.360Z,11.81
2023-05-19T02:57:06.835Z,11.72
2023-05-19T03:00:20.151Z,11.58
2023-05-19T03:03:32.971Z,11.63
2023-05-19T03:06:46.737Z,11.78
2023-05-19T03:09:59.170Z,11.68
2023-05-19T03:13:11.924Z,11.59
2023-05-19T03:16:24.759Z,11.56
2023-05-19T03:19:37.606Z,11.63
2023-05-19T03:22:50.167Z,11.60
2023-05-19T03:26:03.148Z,11.61
2023-05-19T03:29:16.533Z,11.65
2023-05-19T03:32:29.725Z,11.60
2023-05-19T03:35:42.271Z,11.69
2023-05-19T03:38:55.052Z,11.79
2023-05-19T03:42:07.576Z,11.79
2023-05-19T03:45:21.187Z,11.92
2023-05-19T03:48:34.714Z,11.92
2023-05-19T03:51:49.004Z,11.91
2023-05-19T03:55:01.936Z,11.93
2023-05-19T03:58:15.017Z,12.06
2023-05-19T04:01:27.462Z,12.09
2023-05-19T04:04:40.225Z,12.26
2023-05-19T04:07:52.640Z,12.42
2023-05-19T04:11:05.388Z,12.28
2023-05-19T04:14:17.842Z,12.55
2023-05-19T04:17:30.683Z,12.77
2023-05-19T04:20:43.178Z,12.81
2023-05-19T04:23:55.865Z,12.99
2023-05-19T04:27:12.032Z,13.16
2023-05-19T04:30:25.507Z,13.10
2023-05-19T04:33:38.988Z,13.11
2023-05-19T04:36:53.333Z,13.45
2023-05-19T04:40:09.425Z,13.38
2023-05-19T04:43:22.353Z,13.26
2023-05-19T04:46:36.251Z,13.49
2023-05-19T04:49:49.326Z,13.39
2023-05-19T04:53:01.701Z,13.39
2023-05-19T04:56:15.655Z,13.68
2023-05-19T04:59:29.260Z,13.65
2023-05-19T05:02:42.954Z,13.69
2023-05-19T05:05:56.771Z,13.44
2023-05-19T05:09:10.536Z,13.27
2023-05-19T05:12:23.330Z,13.24
2023-05-19T05:15:36.422Z,13.42
2023-05-19T05:18:50.767Z,13.40
2023-05-19T05:22:04.474Z,13.83
2023-05-19T05:25:17.870Z,13.62
2023-05-19T05:28:31.491Z,13.90
2023-05-19T05:31:44.094Z,13.99
2023-05-19T05:34:56.887Z,13.87
2023-05-19T05:38:11.840Z,13.81
2023-05-19T05:41:28.118Z,14.09
2023-05-19T05:44:41.269Z,13.87
2023-05-19T05:47:54.945Z,13.61
2023-05-19T05:51:09.339Z,13.85
2023-05-19T05:54:22.724Z,13.79
2023-05-19T05:57:36.627Z,14.01
2023-05-19T06:00:51.537Z,14.22
2023-05-19T06:04:04.552Z,14.12
2023-05-19T06:07:17.458Z,14.63
2023-05-19T06:10:30.803Z,15.29
2023-05-19T06:13:44.405Z,15.67
2023-05-19T06:16:58.675Z,15.08
2023-05-19T06:20:13.068Z,15.83
2023-05-19T06:23:29.183Z,15.92
2023-05-19T06:26:41.662Z,15.45
2023-05-19T06:29:55.841Z,15.77
2023-05-19T06:33:08.393Z,15.82
2023-05-19T06:36:21.124Z,16.44
2023-05-19T06:39:35.594Z,16.04
2023-05-19T06:42:49.028Z,16.42
2023-05-19T06:46:01.984Z,15.76
2023-05-19T06:49:15.069Z,15.49
2023-05-19T06:52:28.374Z,15.63
2023-05-19T06:55:54.387Z,15.21
2023-05-19T06:59:11.371Z,14.87
2023-05-19T07:02:24.280Z,15.40
2023-05-19T07:05:36.707Z,15.77
2023-05-19T07:08:50.370Z,15.48
2023-05-19T07:12:03.734Z,15.13
2023-05-19T07:15:16.557Z,14.98
2023-05-19T07:18:31.972Z,14.91
2023-05-19T07:21:44.884Z,15.13
2023-05-19T07:24:57.471Z,15.21
2023-05-19T07:28:10.269Z,15.50
2023-05-19T07:31:22.775Z,15.94
2023-05-19T07:34:35.716Z,15.54
2023-05-19T07:37:48.985Z,15.62
2023-05-19T07:41:02.357Z,16.62
2023-05-19T07:44:15.079Z,16.51
2023-05-19T07:47:27.825Z,16.41
2023-05-19T07:50:40.290Z,16.42
2023-05-19T07:53:53.372Z,16.33
2023-05-19T07:57:06.083Z,16.22
2023-05-19T08:00:18.957Z,16.66
2023-05-19T08:03:32.112Z,17.25
2023-05-19T08:06:44.733Z,17.38
2023-05-19T08:09:58.658Z,17.24
2023-05-19T08:13:11.065Z,17.77
2023-05-19T08:16:27.026Z,17.99
2023-05-19T08:19:39.499Z,17.79
2023-05-19T08:22:52.211Z,17.53
2023-05-19T08:26:05.289Z,17.68
2023-05-19T08:29:17.995Z,18.56
2023-05-19T08:32:31.522Z,18.51
2023-05-19T08:35:44.273Z,18.43
2023-05-19T08:38:56.672Z,19.32
2023-05-19T08:42:10.050Z,19.37
2023-05-19T08:45:23.280Z,18.94
2023-05-19T08:48:36.000Z,18.40
2023-05-19T08:52:10.045Z,18.98
2023-05-19T08:56:04.256Z,18.89
2023-05-19T08:59:16.675Z,19.11
2023-05-19T09:02:29.511Z,19.35
2023-05-19T09:05:42.030Z,19.54
2023-05-19T09:08:57.049Z,20.67
2023-05-19T09:12:12.812Z,20.74
2023-05-19T09:15:27.413Z,20.03
2023-05-19T09:18:42.642Z,19.70
2023-05-19T09:22:03.429Z,19.30
2023-05-19T09:25:25.561Z,19.99
2023-05-19T09:28:39.515Z,19.65
2023-05-19T09:32:00.512Z,19.03
2023-05-19T09:35:13.794Z,19.28
2023-05-19T09:38:29.465Z,20.59
2023-05-19T09:41:42.461Z,21.16
2023-05-19T09:45:04.111Z,20.66
2023-05-19T09:48:16.956Z,21.02
2023-05-19T09:51:29.623Z,21.66
2023-05-19T09:54:42.333Z,21.46
2023-05-19T09:57:57.788Z,21.51
2023-05-19T10:01:10.492Z,21.65
2023-05-19T10:04:27.098Z,21.11
2023-05-19T10:07:40.571Z,21.48
2023-05-19T10:10:53.279Z,21.80
2023-05-19T10:14:05.829Z,21.30
2023-05-19T10:17:18.541Z,20.58
2023-05-19T10:20:31.121Z,20.62
2023-05-19T10:23:43.976Z,20.96
2023-05-19T10:27:05.613Z,21.19
2023-05-19T10:30:21.062Z,21.00
2023-05-19T10:34:07.812Z,21.65
2023-05-19T10:37:29.089Z,21.91
2023-05-19T10:41:04.119Z,21.93
2023-05-19T10:44:21.431Z,22.01
2023-05-19T10:47:35.039Z,21.78
2023-05-19T10:50:47.961Z,21.94
2023-05-19T10:54:06.293Z,22.15
2023-05-19T10:57:19.004Z,22.19
2023-05-19T11:00:31.915Z,21.76
2023-05-19T11:03:49.181Z,22.11
2023-05-19T11:07:02.138Z,22.30
2023-05-19T11:10:15.025Z,22.59
2023-05-19T11:16:45.915Z,23.61
2023-05-19T11:19:59.445Z,23.97
2023-05-19T11:23:15.869Z,24.37
2023-05-19T11:26:46.400Z,23.64
2023-05-19T11:30:05.435Z,24.10
2023-05-19T11:33:20.711Z,24.26
2023-05-19T11:36:34.013Z,24.34
2023-05-19T11:39:47.093Z,24.64
2023-05-19T11:43:01.850Z,24.78
2023-05-19T11:46:17.539Z,24.98
2023-05-19T11:49:32.174Z,24.81
2023-05-19T11:52:45.052Z,24.82
2023-05-19T11:55:58.132Z,24.81
2023-05-19T11:59:10.904Z,24.63
2023-05-19T12:02:27.782Z,23.81
2023-05-19T12:05:45.872Z,24.27
2023-05-19T12:08:59.278Z,24.75
2023-05-19T12:12:17.108Z,24.61
2023-05-19T12:15:29.634Z,24.57
2023-05-19T12:18:42.471Z,25.15
2023-05-19T12:21:55.111Z,25.24
2023-05-19T12:25:08.102Z,25.50
2023-05-19T12:28:20.838Z,25.41
2023-05-19T12:31:34.478Z,25.59
2023-05-19T12:34:47.527Z,25.76
2023-05-19T12:38:04.819Z,26.03
2023-05-19T12:41:17.327Z,25.98
2023-05-19T12:44:31.495Z,26.09
2023-05-19T12:47:48.382Z,26.19
2023-05-19T12:51:01.181Z,26.67
2023-05-19T12:54:13.688Z,26.92
2023-05-19T12:57:27.074Z,26.83
2023-05-19T13:00:44.989Z,26.45
2023-05-19T13:03:58.005Z,27.39
2023-05-19T13:07:10.630Z,27.44
2023-05-19T13:10:23.541Z,27.83
2023-05-19T13:13:36.057Z,27.80
2023-05-19T13:16:48.902Z,27.88
2023-05-19T13:20:01.385Z,28.30
2023-05-19T13:23:14.296Z,28.03
2023-05-19T13:26:26.791Z,28.13
2023-05-19T13:29:39.473Z,28.29
2023-05-19T13:32:52.798Z,28.60
2023-05-19T13:36:07.642Z,28.97
2023-05-19T13:39:20.028Z,29.00
2023-05-19T13:42:33.456Z,29.00
2023-05-19T13:45:46.035Z,28.44
2023-05-19T13:48:58.783Z,28.72
2023-05-19T13:52:11.655Z,28.09
2023-05-19T13:55:26.285Z,28.77
2023-05-19T13:58:38.740Z,28.97
2023-05-19T14:01:51.566Z,28.97
2023-05-19T14:05:04.881Z,28.16
2023-05-19T14:08:17.432Z,27.64
2023-05-19T14:11:30.137Z,27.29
2023-05-19T14:14:42.597Z,26.72
2023-05-19T14:17:55.348Z,27.15
2023-05-19T14:21:08.345Z,26.97
2023-05-19T14:24:21.051Z,27.92
2023-05-19T14:27:33.446Z,28.22
2023-05-19T14:30:46.284Z,27.85
2023-05-19T14:33:58.645Z,27.21
2023-05-19T14:37:14.336Z,27.10
2023-05-19T14:40:26.815Z,27.13
2023-05-19T14:43:42.142Z,26.85
2023-05-19T14:46:54.610Z,26.88
2023-05-19T14:50:07.488Z,27.04
2023-05-19T14:53:23.020Z,26.96
2023-05-19T14:56:35.777Z,27.07
2023-05-19T14:59:48.245Z,27.40
2023-05-19T15:03:02.046Z,27.07
2023-05-19T15:06:19.071Z,26.71
2023-05-19T15:09:31.830Z,26.57
2023-05-19T15:12:44.286Z,26.17
2023-05-19T15:16:12.561Z,25.96
2023-05-19T15:19:29.156Z,26.03
2023-05-19T15:22:41.935Z,25.99
2023-05-19T15:25:54.767Z,25.70
2023-05-19T15:29:07.459Z,25.57
2023-05-19T15:32:20.254Z,25.75
2023-05-19T15:35:32.947Z,25.98
2023-05-19T15:38:45.478Z,26.13
2023-05-19T15:41:58.158Z,26.03
2023-05-19T15:45:10.674Z,26.17
2023-05-19T15:48:28.789Z,26.04
2023-05-19T15:51:41.262Z,26.22
2023-05-19T15:54:55.234Z,26.15
2023-05-19T15:58:08.908Z,25.95
2023-05-19T16:01:21.746Z,25.63
2023-05-19T16:04:36.562Z,25.61
2023-05-19T16:07:49.011Z,25.40
2023-05-19T16:11:01.708Z,25.53
2023-05-19T16:14:14.688Z,25.39
2023-05-19T16:17:28.763Z,25.49
2023-05-19T16:20:41.226Z,25.37
2023-05-19T16:23:53.918Z,25.14
2023-05-19T16:27:06.316Z,24.62
2023-05-19T16:30:19.067Z,24.74
2023-05-19T16:33:31.444Z,24.64
2023-05-19T16:36:44.133Z,24.38
2023-05-19T16:39:56.590Z,24.00
2023-05-19T16:43:09.373Z,24.31
2023-05-19T16:46:21.914Z,24.31
2023-05-19T16:49:37.834Z,24.04
2023-05-19T16:52:50.967Z,24.08
2023-05-19T16:56:03.858Z,23.92
2023-05-19T16:59:17.272Z,23.92
2023-05-19T17:02:30.055Z,23.69
2023-05-19T17:05:43.489Z,23.66
2023-05-19T17:08:56.245Z,23.61
2023-05-19T17:12:09.054Z,23.41
2023-05-19T17:15:21.768Z,22.91
2023-05-19T17:18:36.673Z,23.18
2023-05-19T17:21:49.547Z,22.86
2023-05-19T17:25:01.978Z,22.94
2023-05-19T17:28:15.997Z,23.25
2023-05-19T17:31:28.418Z,23.34
2023-05-19T17:34:41.904Z,23.32
2023-05-19T17:37:54.381Z,22.99
2023-05-19T17:41:10.473Z,22.87
2023-05-19T17:44:25.697Z,22.76
2023-05-19T17:47:40.828Z,22.28
2023-05-19T17:50:53.252Z,22.19
2023-05-19T17:54:09.060Z,21.65
2023-05-19T17:57:21.438Z,21.21
2023-05-19T18:00:34.494Z,20.96
2023-05-19T18:03:49.805Z,20.65
2023-05-19T18:07:06.042Z,20.43
2023-05-19T18:10:21.200Z,20.37
2023-05-19T18:13:33.668Z,20.21
2023-05-19T18:16:47.433Z,19.91
2023-05-19T18:19:59.929Z,19.77
2023-05-19T18:23:12.597Z,19.60
2023-05-19T18:26:24.956Z,19.38
2023-05-19T18:29:37.749Z,19.22
2023-05-19T18:32:50.216Z,19.06
2023-05-19T18:36:02.954Z,18.99
2023-05-19T18:39:15.404Z,18.83
2023-05-19T18:42:28.114Z,18.62
2023-05-19T18:45:40.571Z,18.44
2023-05-19T18:48:53.326Z,18.38
2023-05-19T18:52:05.956Z,18.34
2023-05-19T18:55:18.649Z,18.27
2023-05-19T18:58:31.137Z,18.24
2023-05-19T19:01:43.922Z,18.22
2023-05-19T19:04:56.518Z,18.14
2023-05-19T19:08:09.220Z,18.01
2023-05-19T19:11:22.500Z,18.00
2023-05-19T19:14:35.169Z,17.97
2023-05-19T19:17:47.601Z,17.93
2023-05-19T19:21:02.576Z,17.94
2023-05-19T19:24:15.301Z,17.88
2023-05-19T19:27:31.122Z,17.77
2023-05-19T19:30:44.482Z,17.75
2023-05-19T19:33:58.999Z,17.80
2023-05-19T19:37:11.502Z,17.84
2023-05-19T19:40:25.085Z,17.93
2023-05-19T19:43:37.533Z,17.92
2023-05-19T19:46:50.608Z,18.09
2023-05-19T19:50:05.766Z,18.25
2023-05-19T19:53:18.491Z,18.30
2023-05-19T19:56:30.929Z,18.21
2023-05-19T19:59:43.785Z,18.39
2023-05-19T20:03:04.983Z,18.34
2023-05-19T20:06:18.480Z,18.33
2023-05-19T20:09:31.108Z,18.35
2023-05-19T20:12:43.808Z,18.31
2023-05-19T20:15:56.302Z,18.22
2023-05-19T20:19:09.418Z,18.28
2023-05-19T20:22:23.248Z,18.36
2023-05-19T20:25:53.703Z,18.04
2023-05-19T20:29:11.260Z,18.24
2023-05-19T20:32:24.019Z,18.11
2023-05-19T20:35:36.469Z,18.04
2023-05-19T20:38:49.134Z,18.18
2023-05-19T20:42:01.569Z,18.09
2023-05-19T20:45:14.269Z,17.97
2023-05-19T20:48:26.826Z,17.89
2023-05-19T20:51:39.516Z,17.88
2023-05-19T20:54:51.950Z,17.79
2023-05-19T20:58:04.628Z,17.79
2023-05-19T21:01:17.291Z,17.74
2023-05-19T21:04:30.185Z,17.72
2023-05-19T21:07:42.652Z,17.71
2023-05-19T21:10:55.622Z,17.67
2023-05-19T21:14:08.273Z,17.76
2023-05-19T21:17:21.314Z,17.95
2023-05-19T21:20:33.833Z,17.89
2023-05-19T21:23:46.806Z,17.83
2023-05-19T21:26:59.193Z,17.88
2023-05-19T21:30:12.930Z,17.76
2023-05-19T21:33:25.514Z,17.55
2023-05-19T21:36:38.177Z,17.73
2023-05-19T21:39:50.778Z,17.59
2023-05-19T21:43:03.691Z,17.39
2023-05-19T21:46:16.079Z,17.27
2023-05-19T21:49:28.825Z,17.12
2023-05-19T21:52:41.393Z,17.02
2023-05-19T21:55:54.118Z,16.92
2023-05-19T21:59:07.014Z,16.86
2023-05-19T22:02:19.711Z,16.85
2023-05-19T22:05:35.106Z,16.84
2023-05-19T22:08:47.544Z,17.02
2023-05-19T22:12:00.224Z,17.10
2023-05-19T22:15:13.569Z,16.79
2023-05-19T22:18:26.290Z,16.93
2023-05-19T22:21:38.709Z,16.87
2023-05-19T22:24:51.418Z,16.94
2023-05-19T22:28:05.690Z,16.83
2023-05-19T22:31:18.471Z,16.92
2023-05-19T22:34:30.940Z,16.97
2023-05-19T22:37:43.668Z,16.91
2023-05-19T22:40:56.045Z,16.76
2023-05-19T22:44:10.403Z,16.65
2023-05-19T22:47:22.953Z,16.67
2023-05-19T22:50:35.632Z,16.85
2023-05-19T22:53:48.984Z,16.93
2023-05-19T22:57:01.784Z,16.84
2023-05-19T23:00:14.404Z,16.82
2023-05-19T23:03:27.080Z,16.68
2023-05-19T23:06:39.473Z,16.69
2023-05-19T23:09:52.159Z,16.68
2023-05-19T23:13:04.864Z,16.69
2023-05-19T23:16:17.552Z,16.56
2023-05-19T23:19:31.956Z,16.34
2023-05-19T23:22:44.701Z,16.46
2023-05-19T23:25:57.094Z,16.52
2023-05-19T23:29:13.314Z,16.52
2023-05-19T23:32:25.959Z,16.51
2023-05-19T23:35:39.656Z,16.45
2023-05-19T23:38:52.072Z,16.30
2023-05-19T23:42:05.762Z,16.38
2023-05-19T23:45:18.265Z,16.41
2023-05-19T23:48:31.352Z,16.35
2023-05-19T23:51:43.792Z,16.28
2023-05-19T23:54:56.489Z,16.20
2023-05-19T23:58:08.911Z,16.12
